createdAt,value
2024-05-09T00:00:44.962Z,70.00
2024-05-09T00:03:31.374Z,69.74
2024-05-09T00:05:57.756Z,69.76
2024-05-09T00:08:24.060Z,69.97
2024-05-09T00:10:50.469Z,69.77
2024-05-09T00:13:16.726Z,69.77
2024-05-09T00:15:42.949Z,70.25
2024-05-09T00:18:09.352Z,70.50
2024-05-09T00:20:39.364Z,71.29
2024-05-09T00:23:09.760Z,71.57
2024-05-09T00:25:36.996Z,71.80
2024-05-09T00:28:03.580Z,71.84
2024-05-09T00:30:34.571Z,72.69
2024-05-09T00:33:07.877Z,72.70
2024-05-09T00:35:35.533Z,73.11
2024-05-09T00:38:02.380Z,73.44
2024-05-09T00:40:43.224Z,74.32
2024-05-09T00:43:11.216Z,75.26
2024-05-09T00:45:37.932Z,75.66
2024-05-09T00:48:05.658Z,76.55
2024-05-09T00:50:36.851Z,76.82
2024-05-09T00:53:05.567Z,76.55
2024-05-09T00:55:32.363Z,77.17
2024-05-09T00:57:58.706Z,77.55
2024-05-09T01:00:31.653Z,78.05
2024-05-09T01:03:04.779Z,78.42
2024-05-09T01:05:31.609Z,79.45
2024-05-09T01:07:57.912Z,79.55
2024-05-09T01:10:32.092Z,79.45
2024-05-09T01:13:01.866Z,79.89
2024-05-09T01:15:28.184Z,79.45
2024-05-09T01:17:55.702Z,79.75
2024-05-09T01:20:31.813Z,80.69
2024-05-09T01:23:06.828Z,81.32
2024-05-09T01:25:34.523Z,81.24
2024-05-09T01:28:00.965Z,81.21
2024-05-09T01:30:33.885Z,81.97
2024-05-09T01:33:02.929Z,82.37
2024-05-09T01:35:29.512Z,82.85
2024-05-09T01:37:55.754Z,83.38
2024-05-09T01:40:28.682Z,83.69
2024-05-09T01:43:01.774Z,83.70
2024-05-09T01:45:27.981Z,84.59
2024-05-09T01:47:54.428Z,84.61
2024-05-09T01:50:33.030Z,84.95
2024-05-09T01:53:04.033Z,85.20
2024-05-09T01:55:30.350Z,85.59
2024-05-09T01:57:56.547Z,85.31
2024-05-09T02:00:34.505Z,85.81
2024-05-09T02:03:12.291Z,86.14
2024-05-09T02:05:42.058Z,86.73
2024-05-09T02:08:18.940Z,86.12
2024-05-09T02:10:47.602Z,86.17
2024-05-09T02:13:14.832Z,86.78
2024-05-09T02:15:41.294Z,87.02
2024-05-09T02:18:07.981Z,87.01
2024-05-09T02:20:37.246Z,87.52
2024-05-09T02:23:05.504Z,87.32
2024-05-09T02:25:32.033Z,87.80
2024-05-09T02:27:58.388Z,87.96
2024-05-09T02:30:34.547Z,88.08
2024-05-09T02:33:05.273Z,88.72
2024-05-09T02:35:32.019Z,88.92
2024-05-09T02:37:58.340Z,88.68
2024-05-09T02:40:33.250Z,89.28
2024-05-09T02:43:03.623Z,89.64
2024-05-09T02:45:29.814Z,89.71
2024-05-09T02:47:56.253Z,89.90
2024-05-09T02:50:29.992Z,90.35
2024-05-09T02:53:03.246Z,90.14
2024-05-09T02:55:29.448Z,90.53
2024-05-09T02:57:55.614Z,90.74
2024-05-09T03:00:26.767Z,90.96
2024-05-09T03:03:01.702Z,91.46
2024-05-09T03:05:28.178Z,91.45
2024-05-09T03:07:54.497Z,91.58
2024-05-09T03:10:25.598Z,91.55
2024-05-09T03:12:54.854Z,91.64
2024-05-09T03:15:21.863Z,92.62
2024-05-09T03:17:48.291Z,92.48
2024-05-09T03:20:20.593Z,93.12
2024-05-09T03:22:51.569Z,93.66
2024-05-09T03:25:18.914Z,93.82
2024-05-09T03:27:45.116Z,94.38
2024-05-09T03:30:15.556Z,94.79
2024-05-09T03:32:44.918Z,95.61
2024-05-09T03:35:11.295Z,94.53
2024-05-09T03:37:37.469Z,94.91
2024-05-09T03:40:05.599Z,95.64
2024-05-09T03:42:33.308Z,95.05
2024-05-09T03:44:59.492Z,95.16
2024-05-09T03:47:25.801Z,95.97
2024-05-09T03:49:52.228Z,96.53
2024-05-09T03:52:18.462Z,96.71
2024-05-09T03:54:47.835Z,97.12
2024-05-09T03:57:14.020Z,97.26
2024-05-09T03:59:40.273Z,96.78
2024-05-09T04:02:06.748Z,96.99
2024-05-09T04:04:33.120Z,96.82
2024-05-09T04:06:59.467Z,96.79
2024-05-09T04:09:25.815Z,96.46
2024-05-09T04:11:52.389Z,96.06
2024-05-09T04:14:19.405Z,95.51
2024-05-09T04:16:45.683Z,95.57
2024-05-09T04:19:11.985Z,95.80
2024-05-09T04:21:38.247Z,94.96
2024-05-09T04:24:05.148Z,94.86
2024-05-09T04:26:31.473Z,94.77
2024-05-09T04:28:57.988Z,94.85
2024-05-09T04:31:24.390Z,93.55
2024-05-09T04:33:50.693Z,92.39
2024-05-09T04:36:17.074Z,91.47
2024-05-09T04:38:43.535Z,89.32
2024-05-09T04:41:09.762Z,84.46
2024-05-09T04:43:35.992Z,78.64
2024-05-09T04:46:02.203Z,73.94
2024-05-09T04:48:28.699Z,68.72
2024-05-09T04:50:55.067Z,63.44
2024-05-09T04:53:21.388Z,60.36
2024-05-09T04:55:47.879Z,56.64
2024-05-09T04:58:14.193Z,55.80
2024-05-09T05:00:41.211Z,55.24
2024-05-09T05:03:11.928Z,54.08
2024-05-09T05:05:40.993Z,53.77
2024-05-09T05:08:15.256Z,53.45
2024-05-09T05:10:42.986Z,54.42
2024-05-09T05:13:21.265Z,54.26
2024-05-09T05:15:50.675Z,54.86
2024-05-09T05:18:17.206Z,54.87
2024-05-09T05:20:44.329Z,54.63
2024-05-09T05:23:12.655Z,55.18
2024-05-09T05:25:39.803Z,54.96
2024-05-09T05:28:06.630Z,54.73
2024-05-09T05:30:35.022Z,55.07
2024-05-09T05:33:01.652Z,54.80
2024-05-09T05:35:28.091Z,55.34
2024-05-09T05:37:54.434Z,55.57
2024-05-09T05:40:28.215Z,55.72
2024-05-09T05:43:21.907Z,56.09
2024-05-09T05:45:48.080Z,54.88
2024-05-09T05:48:15.595Z,55.55
2024-05-09T05:50:43.342Z,55.92
2024-05-09T05:53:10.445Z,55.20
2024-05-09T05:55:38.937Z,55.14
2024-05-09T05:58:09.107Z,54.95
2024-05-09T06:00:38.784Z,54.52
2024-05-09T06:03:07.431Z,53.42
2024-05-09T06:05:35.544Z,52.96
2024-05-09T06:08:01.935Z,53.17
2024-05-09T06:10:37.367Z,52.36
2024-05-09T06:13:06.865Z,51.44
2024-05-09T06:15:33.075Z,51.07
2024-05-09T06:17:59.619Z,50.47
2024-05-09T06:20:34.749Z,49.51
2024-05-09T06:23:07.703Z,48.58
2024-05-09T06:25:34.930Z,48.46
2024-05-09T06:28:01.697Z,49.93
2024-05-09T06:30:36.862Z,49.41
2024-05-09T06:33:07.815Z,49.49
2024-05-09T06:35:34.825Z,49.39
2024-05-09T06:38:01.554Z,48.93
2024-05-09T06:40:36.302Z,48.10
2024-05-09T06:43:10.149Z,47.67
2024-05-09T06:45:36.304Z,46.55
2024-05-09T06:48:02.721Z,45.21
2024-05-09T06:50:35.733Z,45.47
2024-05-09T06:53:04.541Z,44.34
2024-05-09T06:55:30.826Z,43.94
2024-05-09T06:57:57.082Z,43.33
2024-05-09T07:00:30.595Z,44.29
2024-05-09T07:03:13.511Z,44.11
2024-05-09T07:05:42.225Z,42.88
2024-05-09T07:08:08.797Z,42.34
2024-05-09T07:10:36.250Z,41.49
2024-05-09T07:13:14.130Z,40.18
2024-05-09T07:15:41.357Z,39.31
2024-05-09T07:18:12.214Z,38.66
2024-05-09T07:20:39.545Z,38.39
2024-05-09T07:23:09.085Z,38.16
2024-05-09T07:25:35.818Z,37.99
2024-05-09T07:28:02.261Z,37.52
2024-05-09T07:30:33.426Z,37.97
2024-05-09T07:33:01.824Z,37.37
2024-05-09T07:35:28.931Z,37.76
2024-05-09T07:37:55.299Z,37.48
2024-05-09T07:40:31.590Z,37.73
2024-05-09T07:43:06.308Z,36.96
2024-05-09T07:52:23.946Z,34.78
2024-05-09T07:53:38.206Z,35.27
2024-05-09T07:56:04.783Z,34.49
2024-05-09T07:58:31.543Z,34.81
2024-05-09T08:00:57.858Z,34.71
2024-05-09T08:03:24.384Z,33.80
2024-05-09T08:05:51.018Z,33.67
2024-05-09T08:08:17.264Z,33.28
2024-05-09T08:10:43.702Z,33.42
2024-05-09T08:13:10.136Z,33.10
2024-05-09T08:15:39.411Z,33.02
2024-05-09T08:18:09.049Z,33.13
2024-05-09T08:20:39.071Z,32.95
2024-05-09T08:23:05.546Z,32.66
2024-05-09T08:25:32.270Z,31.95
2024-05-09T08:27:58.483Z,31.54
2024-05-09T08:30:32.533Z,31.94
2024-05-09T08:33:03.731Z,31.71
2024-05-09T08:35:30.047Z,31.48
2024-05-09T08:37:56.419Z,31.08
2024-05-09T08:40:30.691Z,31.10
2024-05-09T08:43:02.032Z,31.05
2024-05-09T08:45:29.270Z,30.90
2024-05-09T08:47:57.443Z,31.05
2024-05-09T08:50:31.860Z,30.59
2024-05-09T08:53:04.646Z,30.33
2024-05-09T08:55:30.956Z,30.93
2024-05-09T08:57:59.381Z,31.24
2024-05-09T09:00:35.595Z,31.03
2024-05-09T09:03:06.127Z,31.68
2024-05-09T09:05:37.810Z,30.97
2024-05-09T09:08:07.152Z,30.21
2024-05-09T09:10:33.650Z,30.17
2024-05-09T09:13:03.013Z,30.23
2024-05-09T09:15:29.565Z,30.24
2024-05-09T09:17:59.733Z,30.67
2024-05-09T09:20:33.856Z,30.20
2024-05-09T09:23:03.300Z,30.35
2024-05-09T09:25:29.471Z,30.90
2024-05-09T09:27:57.102Z,30.41
2024-05-09T09:30:34.509Z,29.14
2024-05-09T09:33:05.514Z,29.12
2024-05-09T09:35:31.942Z,29.80
2024-05-09T09:38:01.325Z,28.76
2024-05-09T09:40:34.031Z,28.71
2024-05-09T09:43:06.142Z,28.89
2024-05-09T09:45:35.311Z,29.35
2024-05-09T09:48:02.279Z,29.26
2024-05-09T09:50:34.227Z,28.47
2024-05-09T09:53:04.047Z,28.42
2024-05-09T09:55:31.766Z,28.02
2024-05-09T09:57:58.852Z,28.57
2024-05-09T10:00:32.054Z,29.04
2024-05-09T10:03:00.173Z,28.74
2024-05-09T10:05:27.450Z,27.95
2024-05-09T10:07:54.870Z,27.42
2024-05-09T10:10:31.498Z,27.59
2024-05-09T10:13:02.484Z,27.41
2024-05-09T10:15:28.963Z,27.59
2024-05-09T10:18:05.285Z,27.82
2024-05-09T10:20:41.919Z,26.97
2024-05-09T10:23:27.326Z,27.85
2024-05-09T10:26:04.013Z,27.76
2024-05-09T10:28:36.174Z,27.94
2024-05-09T10:31:10.666Z,28.49
2024-05-09T10:33:51.709Z,27.41
2024-05-09T10:36:20.831Z,26.52
2024-05-09T10:38:51.789Z,27.46
2024-05-09T10:41:19.303Z,26.76
2024-05-09T10:43:46.562Z,26.67
2024-05-09T10:46:18.055Z,26.16
2024-05-09T10:48:44.833Z,26.25
2024-05-09T10:51:12.562Z,26.09
2024-05-09T10:53:43.329Z,26.77
2024-05-09T10:56:10.155Z,27.07
2024-05-09T10:58:36.526Z,27.06
2024-05-09T11:01:06.416Z,26.94
2024-05-09T11:03:34.196Z,27.59
2024-05-09T11:06:00.768Z,28.12
2024-05-09T11:08:27.294Z,28.26
2024-05-09T11:10:54.185Z,28.37
2024-05-09T11:13:31.542Z,28.44
2024-05-09T11:15:59.158Z,28.73
2024-05-09T11:18:35.273Z,29.26
2024-05-09T11:21:11.258Z,29.44
2024-05-09T11:23:37.597Z,29.50
2024-05-09T11:26:04.228Z,29.60
2024-05-09T11:28:30.608Z,30.31
2024-05-09T11:31:08.730Z,30.63
2024-05-09T11:33:37.686Z,30.39
2024-05-09T11:36:04.961Z,29.89
2024-05-09T11:38:31.881Z,30.25
2024-05-09T11:40:58.087Z,30.37
2024-05-09T11:43:24.345Z,30.57
2024-05-09T11:45:50.723Z,31.32
2024-05-09T11:48:17.047Z,31.40
2024-05-09T11:50:43.443Z,31.62
2024-05-09T11:53:11.507Z,31.57
2024-05-09T11:55:37.848Z,31.88
2024-05-09T11:58:04.680Z,32.03
2024-05-09T12:00:36.685Z,32.08
2024-05-09T12:03:04.925Z,32.64
2024-05-09T12:05:32.272Z,33.06
2024-05-09T12:07:58.772Z,32.80
2024-05-09T12:10:32.584Z,33.43
2024-05-09T12:13:02.122Z,32.88
2024-05-09T12:15:28.819Z,33.28
2024-05-09T12:17:57.312Z,33.51
2024-05-09T12:20:33.001Z,32.86
2024-05-09T12:23:03.577Z,32.31
2024-05-09T12:25:30.196Z,32.42
2024-05-09T12:27:56.422Z,32.26
2024-05-09T12:30:32.751Z,32.44
2024-05-09T12:33:04.078Z,32.57
2024-05-09T12:35:30.489Z,32.67
2024-05-09T12:37:56.661Z,32.68
2024-05-09T12:40:31.506Z,32.48
2024-05-09T12:43:02.448Z,32.10
2024-05-09T12:45:28.737Z,32.63
2024-05-09T12:47:55.139Z,32.56
2024-05-09T12:50:29.200Z,32.61
2024-05-09T12:52:58.245Z,32.20
2024-05-09T12:55:24.507Z,32.26
2024-05-09T12:57:50.826Z,31.88
2024-05-09T13:00:23.975Z,31.90
2024-05-09T13:02:57.290Z,31.46
2024-05-09T13:05:23.758Z,31.28
2024-05-09T13:07:50.103Z,30.91
2024-05-09T13:10:25.483Z,31.52
2024-05-09T13:12:58.330Z,30.84
2024-05-09T13:15:24.578Z,31.48
2024-05-09T13:17:50.884Z,30.85
2024-05-09T13:20:26.055Z,30.83
2024-05-09T13:23:00.947Z,31.52
2024-05-09T13:25:27.211Z,30.93
2024-05-09T13:27:53.549Z,30.09
2024-05-09T13:30:28.774Z,29.62
2024-05-09T13:33:01.652Z,29.77
2024-05-09T13:35:27.967Z,29.63
2024-05-09T13:37:54.233Z,29.30
2024-05-09T13:40:29.853Z,29.15
2024-05-09T13:43:00.905Z,28.93
2024-05-09T13:45:27.168Z,29.38
2024-05-09T13:47:53.716Z,29.17
2024-05-09T13:50:28.148Z,29.13
2024-05-09T13:53:00.106Z,29.23
2024-05-09T13:55:27.066Z,29.47
2024-05-09T13:57:53.547Z,29.03
2024-05-09T14:00:31.938Z,28.93
2024-05-09T14:03:06.329Z,28.76
2024-05-09T14:05:32.920Z,28.95
2024-05-09T14:07:59.983Z,29.19
2024-05-09T14:10:30.980Z,29.57
2024-05-09T14:12:58.202Z,29.77
2024-05-09T14:15:24.434Z,28.73
2024-05-09T14:17:50.807Z,29.25
2024-05-09T14:20:27.814Z,28.82
2024-05-09T14:22:58.220Z,28.65
2024-05-09T14:25:27.387Z,28.45
2024-05-09T14:27:53.880Z,28.83
2024-05-09T14:30:29.747Z,29.15
2024-05-09T14:33:00.947Z,29.72
2024-05-09T14:35:27.362Z,30.26
2024-05-09T14:37:54.307Z,30.37
2024-05-09T14:40:31.133Z,30.65
2024-05-09T14:43:06.109Z,31.26
2024-05-09T14:45:33.573Z,31.14
2024-05-09T14:47:59.910Z,31.41
2024-05-09T14:50:34.638Z,31.06
2024-05-09T14:53:04.990Z,30.80
2024-05-09T14:55:31.330Z,31.30
2024-05-09T14:57:57.694Z,30.82
2024-05-09T15:00:28.928Z,31.40
2024-05-09T15:02:59.612Z,32.01
2024-05-09T15:05:25.976Z,32.10
2024-05-09T15:07:52.450Z,32.53
2024-05-09T15:10:26.600Z,32.62
2024-05-09T15:12:59.980Z,33.07
2024-05-09T15:15:26.445Z,33.22
2024-05-09T15:17:54.046Z,33.14
2024-05-09T15:20:27.898Z,33.21
2024-05-09T15:23:00.568Z,32.99
2024-05-09T15:25:26.900Z,32.85
2024-05-09T15:27:54.140Z,33.28
2024-05-09T15:30:28.268Z,33.66
2024-05-09T15:32:57.644Z,34.07
2024-05-09T15:35:23.855Z,33.79
2024-05-09T15:37:50.078Z,33.82
2024-05-09T15:40:26.112Z,34.12
2024-05-09T15:43:01.716Z,34.03
2024-05-09T15:45:30.658Z,34.32
2024-05-09T15:47:57.802Z,34.58
2024-05-09T15:50:32.817Z,35.05
2024-05-09T15:53:04.572Z,35.27
2024-05-09T15:55:32.734Z,35.19
2024-05-09T15:58:00.532Z,35.02
2024-05-09T16:00:36.056Z,34.88
2024-05-09T16:03:06.033Z,35.19
2024-05-09T16:05:32.416Z,35.23
2024-05-09T16:07:58.922Z,35.56
2024-05-09T16:10:30.099Z,35.50
2024-05-09T16:12:59.043Z,35.73
2024-05-09T16:15:25.295Z,35.49
2024-05-09T16:17:51.603Z,35.95
2024-05-09T16:20:29.034Z,36.55
2024-05-09T16:23:03.111Z,36.69
2024-05-09T16:25:29.370Z,36.76
2024-05-09T16:27:55.755Z,36.63
2024-05-09T16:30:28.287Z,36.57
2024-05-09T16:33:00.701Z,36.59
2024-05-09T16:35:26.953Z,36.68
2024-05-09T16:37:53.275Z,36.69
2024-05-09T16:40:29.290Z,36.79
2024-05-09T16:43:02.986Z,37.07
2024-05-09T16:45:29.219Z,37.13
2024-05-09T16:47:55.625Z,37.13
2024-05-09T16:50:28.851Z,37.02
2024-05-09T16:52:58.337Z,37.55
2024-05-09T16:55:24.616Z,37.86
2024-05-09T16:57:52.392Z,37.57
2024-05-09T17:00:30.846Z,37.48
2024-05-09T17:03:05.341Z,37.64
2024-05-09T17:05:31.855Z,37.64
2024-05-09T17:07:58.918Z,37.96
2024-05-09T17:10:31.745Z,38.08
2024-05-09T17:13:00.338Z,38.25
2024-05-09T17:15:26.630Z,38.08
2024-05-09T17:17:52.849Z,38.41
2024-05-09T17:20:29.291Z,38.55
2024-05-09T17:23:01.538Z,38.72
2024-05-09T17:25:27.828Z,38.88
2024-05-09T17:27:54.264Z,39.32
2024-05-09T17:30:28.801Z,39.35
2024-05-09T17:33:01.667Z,39.60
2024-05-09T17:35:28.367Z,39.93
2024-05-09T17:37:54.627Z,39.96
2024-05-09T17:40:30.071Z,40.32
2024-05-09T17:42:59.688Z,40.31
2024-05-09T17:45:25.908Z,40.12
2024-05-09T17:47:52.405Z,40.27
2024-05-09T17:50:26.680Z,40.35
2024-05-09T17:52:57.345Z,40.62
2024-05-09T17:55:23.588Z,40.64
2024-05-09T17:57:50.156Z,40.81
2024-05-09T18:00:24.642Z,40.98
2024-05-09T18:03:00.214Z,41.34
2024-05-09T18:05:28.293Z,41.78
2024-05-09T18:07:56.163Z,41.91
2024-05-09T18:10:29.528Z,42.19
2024-05-09T18:13:01.766Z,41.99
2024-05-09T18:15:28.018Z,42.13
2024-05-09T18:17:54.359Z,42.38
2024-05-09T18:20:31.965Z,42.62
2024-05-09T18:23:06.221Z,42.90
2024-05-09T18:25:32.467Z,43.09
2024-05-09T18:28:01.358Z,43.34
2024-05-09T18:30:33.612Z,43.75
2024-05-09T18:33:01.981Z,44.06
2024-05-09T18:35:28.427Z,44.38
2024-05-09T18:37:54.648Z,44.80
2024-05-09T18:40:28.244Z,44.98
2024-05-09T18:43:00.288Z,45.31
2024-05-09T18:45:28.286Z,45.92
2024-05-09T18:47:55.083Z,46.09
2024-05-09T18:50:31.631Z,46.79
2024-05-09T18:53:02.672Z,47.18
2024-05-09T18:55:28.956Z,47.67
2024-05-09T18:57:55.276Z,48.01
2024-05-09T19:00:32.903Z,48.71
2024-05-09T19:03:03.893Z,49.25
2024-05-09T19:05:30.583Z,49.74
2024-05-09T19:07:57.073Z,49.79
2024-05-09T19:10:28.713Z,50.39
2024-05-09T19:12:58.523Z,50.47
2024-05-09T19:15:24.919Z,50.88
2024-05-09T19:17:51.274Z,51.29
2024-05-09T19:20:25.235Z,51.72
2024-05-09T19:22:57.668Z,52.68
2024-05-09T19:25:23.851Z,52.99
2024-05-09T19:27:50.066Z,53.79
2024-05-09T19:30:28.894Z,54.06
2024-05-09T19:33:02.655Z,54.84
2024-05-09T19:35:28.943Z,55.31
2024-05-09T19:37:55.355Z,56.00
2024-05-09T19:40:28.891Z,56.34
2024-05-09T19:42:58.138Z,56.91
2024-05-09T19:45:24.396Z,57.31
2024-05-09T19:47:50.969Z,58.56
2024-05-09T19:50:26.424Z,59.37
2024-05-09T19:52:58.699Z,60.17
2024-05-09T19:55:25.110Z,60.42
2024-05-09T19:57:51.360Z,61.15
2024-05-09T20:00:22.349Z,61.24
2024-05-09T20:02:55.433Z,61.19
2024-05-09T20:05:21.947Z,61.58
2024-05-09T20:07:48.384Z,62.28
2024-05-09T20:10:23.246Z,63.44
2024-05-09T20:12:52.968Z,64.17
2024-05-09T20:15:19.244Z,64.59
2024-05-09T20:17:45.629Z,64.18
2024-05-09T20:20:20.291Z,64.74
2024-05-09T20:22:54.351Z,65.91
2024-05-09T20:25:20.962Z,66.04
2024-05-09T20:27:47.291Z,66.54
2024-05-09T20:30:20.903Z,66.06
2024-05-09T20:32:51.382Z,66.98
2024-05-09T20:35:17.673Z,67.36
2024-05-09T20:37:43.826Z,67.30
2024-05-09T20:40:15.649Z,67.65
2024-05-09T20:42:47.859Z,68.13
2024-05-09T20:45:14.193Z,68.70
2024-05-09T20:47:40.469Z,70.43
2024-05-09T20:50:13.728Z,70.23
2024-05-09T20:52:46.543Z,70.48
2024-05-09T20:55:12.963Z,71.37
2024-05-09T20:57:39.328Z,71.69
2024-05-09T21:00:09.581Z,72.12
2024-05-09T21:02:42.892Z,71.45
2024-05-09T21:05:09.518Z,72.54
2024-05-09T21:07:35.933Z,72.88
2024-05-09T21:10:02.388Z,73.37
2024-05-09T21:12:29.262Z,72.97
2024-05-09T21:14:55.420Z,73.39
2024-05-09T21:17:21.804Z,73.73
2024-05-09T21:19:48.540Z,74.04
2024-05-09T21:22:14.811Z,74.60
2024-05-09T21:24:41.159Z,74.32
2024-05-09T21:27:07.424Z,74.37
2024-05-09T21:29:33.795Z,75.33
2024-05-09T21:31:59.983Z,75.72
2024-05-09T21:34:26.227Z,75.44
2024-05-09T21:36:52.458Z,75.51
2024-05-09T21:39:18.836Z,76.41
2024-05-09T21:41:45.237Z,76.53
2024-05-09T21:44:11.523Z,76.69
2024-05-09T21:46:37.802Z,76.68
2024-05-09T21:49:04.159Z,77.47
2024-05-09T21:51:31.007Z,78.66
2024-05-09T21:53:57.970Z,80.06
2024-05-09T21:56:25.059Z,81.19
2024-05-09T21:58:51.418Z,81.83
2024-05-09T22:01:17.915Z,82.24
2024-05-09T22:03:44.536Z,82.97
2024-05-09T22:06:11.336Z,83.30
2024-05-09T22:08:37.552Z,84.14
2024-05-09T22:11:04.014Z,84.45
2024-05-09T22:13:30.265Z,84.31
2024-05-09T22:15:56.572Z,84.90
2024-05-09T22:18:23.018Z,84.80
2024-05-09T22:20:49.182Z,84.92
2024-05-09T22:23:15.422Z,85.47
2024-05-09T22:25:41.694Z,86.10
2024-05-09T22:28:08.071Z,86.08
2024-05-09T22:30:38.151Z,85.97
2024-05-09T22:33:07.699Z,86.44
2024-05-09T22:35:34.366Z,86.72
2024-05-09T22:38:02.147Z,85.99
2024-05-09T22:40:38.391Z,86.72
2024-05-09T22:43:12.933Z,87.43
2024-05-09T22:45:39.400Z,87.99
2024-05-09T22:48:06.955Z,88.45
2024-05-09T22:50:33.893Z,88.49
2024-05-09T22:53:00.229Z,89.28
2024-05-09T22:55:26.462Z,89.72
2024-05-09T22:57:52.699Z,90.69
2024-05-09T23:00:21.860Z,90.71
2024-05-09T23:02:52.567Z,91.17
2024-05-09T23:05:18.899Z,91.45
2024-05-09T23:07:45.135Z,91.75
2024-05-09T23:10:17.127Z,91.21
2024-05-09T23:12:47.790Z,90.76
2024-05-09T23:15:14.149Z,91.14
2024-05-09T23:17:40.498Z,90.78
2024-05-09T23:20:11.352Z,90.55
2024-05-09T23:22:38.072Z,91.06
2024-05-09T23:25:04.656Z,91.67
2024-05-09T23:27:31.283Z,91.42
2024-05-09T23:29:57.528Z,92.15
2024-05-09T23:32:23.773Z,92.73
2024-05-09T23:34:50.066Z,92.72
2024-05-09T23:37:16.303Z,93.44
2024-05-09T23:39:42.640Z,93.49
2024-05-09T23:42:09.022Z,93.83
2024-05-09T23:44:35.217Z,94.13
2024-05-09T23:47:01.548Z,94.22
2024-05-09T23:49:27.775Z,94.60
2024-05-09T23:51:53.988Z,95.10
2024-05-09T23:54:20.225Z,95.00
2024-05-09T23:56:46.518Z,94.54
2024-05-09T23:59:12.650Z,94.25
